Time,TemperatureF,DewpointF,PressureIn,WindDirection,WindDirectionDegrees,WindSpeedMPH,WindSpeedGustMPH,Humidity,HourlyPrecipIn,Conditions,Clouds,dailyrainin,SoftwareType,DateUTC
2013-06-12 00:03:00,47.0,45.0,-100.00,NNE,14,0.0,0.0,92,0.00,,,-99.99,,2013-06-12 05:03:00,
2013-06-12 00:52:00,46.0,44.0,-100.00,North,356,0.0,0.0,94,-99.99,,,-99.99,,2013-06-12 05:52:00,
2013-06-12 01:02:00,46.0,44.0,-100.00,North,356,0.0,0.0,94,-99.99,,,-99.99,,2013-06-12 06:02:00,
2013-06-12 01:12:00,46.0,44.0,-100.00,North,356,0.0,0.0,94,-99.99,,,-99.99,,2013-06-12 06:12:00,
2013-06-12 01:22:00,46.0,44.0,-100.00,North,356,0.0,0.0,94,-99.99,,,-99.99,,2013-06-12 06:22:00,
2013-06-12 01:32:00,46.0,44.0,-100.00,North,356,0.0,0.0,94,-99.99,,,-99.99,,2013-06-12 06:32:00,
2013-06-12 01:52:00,43.0,42.0,-100.00,North,3,0.0,0.0,96,0.00,,,-99.99,,2013-06-12 06:52:00,
2013-06-12 02:02:00,43.0,42.0,-100.00,North,3,0.0,0.0,96,0.00,,,-99.99,,2013-06-12 07:02:00,
2013-06-12 02:12:00,43.0,42.0,-100.00,North,3,0.0,0.0,96,0.00,,,-99.99,,2013-06-12 07:12:00,
2013-06-12 02:22:00,43.0,42.0,-100.00,North,3,0.0,0.0,96,0.00,,,-99.99,,2013-06-12 07:22:00,
2013-06-12 02:33:00,43.0,42.0,-100.00,North,3,0.0,0.0,96,0.00,,,-99.99,,2013-06-12 07:33:00,
2013-06-12 03:12:00,42.0,41.0,-100.00,NE,40,0.0,0.0,97,0.00,,,-99.99,,2013-06-12 08:12:00,
2013-06-12 03:22:00,42.0,41.0,-100.00,NE,40,0.0,0.0,97,0.00,,,-99.99,,2013-06-12 08:22:00,
2013-06-12 03:33:00,42.0,41.0,-100.00,NE,40,0.0,0.0,97,0.00,,,-99.99,,2013-06-12 08:33:00,
2013-06-12 04:11:00,41.0,40.0,-100.00,NNE,30,0.0,0.0,98,0.00,,,-99.99,,2013-06-12 09:11:00,
2013-06-12 04:22:00,41.0,40.0,-100.00,NNE,30,0.0,0.0,98,0.00,,,-99.99,,2013-06-12 09:22:00,
2013-06-12 04:33:00,41.0,40.0,-100.00,NNE,30,0.0,0.0,98,0.00,,,-99.99,,2013-06-12 09:33:00,
2013-06-12 05:11:00,40.0,39.0,-100.00,NE,36,0.0,3.0,98,0.00,,,-99.99,,2013-06-12 10:11:00,
2013-06-12 05:23:00,40.0,39.0,-100.00,NE,36,0.0,3.0,98,0.00,,,-99.99,,2013-06-12 10:23:00,
2013-06-12 05:33:00,40.0,39.0,-100.00,NE,36,0.0,3.0,98,0.00,,,-99.99,,2013-06-12 10:33:00,
2013-06-12 06:02:00,40.0,39.0,-100.00,NNE,25,0.0,0.0,97,0.00,,,-99.99,,2013-06-12 11:02:00,
2013-06-12 06:12:00,40.0,39.0,-100.00,NNE,25,0.0,0.0,97,0.00,,,-99.99,,2013-06-12 11:12:00,
2013-06-12 06:24:00,40.0,39.0,-100.00,NNE,25,0.0,0.0,97,0.00,,,-99.99,,2013-06-12 11:24:00,
2013-06-12 06:33:00,40.0,39.0,-100.00,NNE,25,0.0,0.0,97,0.00,,,-99.99,,2013-06-12 11:33:00,
2013-06-12 07:02:00,49.0,48.0,-100.00,ENE,62,0.0,0.0,96,0.00,,,-99.99,,2013-06-12 12:02:00,
2013-06-12 07:11:00,49.0,48.0,-100.00,ENE,62,0.0,0.0,96,0.00,,,-99.99,,2013-06-12 12:11:00,
2013-06-12 07:23:00,49.0,48.0,-100.00,ENE,62,0.0,0.0,96,0.00,,,-99.99,,2013-06-12 12:23:00,
2013-06-12 07:33:00,49.0,48.0,-100.00,ENE,62,0.0,0.0,96,0.00,,,-99.99,,2013-06-12 12:33:00,
2013-06-12 08:01:00,61.0,55.0,-100.00,ESE,120,0.0,0.0,82,0.00,,,-99.99,,2013-06-12 13:01:00,
2013-06-12 08:12:00,61.0,55.0,-100.00,ESE,120,0.0,0.0,82,0.00,,,-99.99,,2013-06-12 13:12:00,
2013-06-12 08:22:00,61.0,55.0,-100.00,ESE,120,0.0,0.0,82,0.00,,,-99.99,,2013-06-12 13:22:00,
2013-06-12 08:33:00,61.0,55.0,-100.00,ESE,120,0.0,0.0,82,0.00,,,-99.99,,2013-06-12 13:33:00,
2013-06-12 09:11:00,72.0,56.0,-100.00,NNW,328,0.0,0.0,57,0.00,,,-99.99,,2013-06-12 14:11:00,
2013-06-12 09:24:00,72.0,56.0,-100.00,NNW,328,0.0,0.0,57,0.00,,,-99.99,,2013-06-12 14:24:00,
2013-06-12 09:33:00,72.0,56.0,-100.00,NNW,328,0.0,0.0,57,0.00,,,-99.99,,2013-06-12 14:33:00,
2013-06-12 10:01:00,75.0,52.0,-100.00,SE,143,3.0,7.0,45,0.00,,,-99.99,,2013-06-12 15:01:00,
2013-06-12 10:12:00,75.0,52.0,-100.00,SE,143,3.0,7.0,45,0.00,,,-99.99,,2013-06-12 15:12:00,
2013-06-12 10:23:00,75.0,52.0,-100.00,SE,143,3.0,7.0,45,0.00,,,-99.99,,2013-06-12 15:23:00,
2013-06-12 10:33:00,75.0,52.0,-100.00,SE,143,3.0,7.0,45,0.00,,,-99.99,,2013-06-12 15:33:00,
2013-06-12 11:12:00,78.0,51.0,-100.00,North,350,3.0,8.0,39,0.00,,,-99.99,,2013-06-12 16:12:00,
2013-06-12 11:22:00,78.0,51.0,-100.00,North,350,3.0,8.0,39,0.00,,,-99.99,,2013-06-12 16:22:00,
2013-06-12 11:32:00,78.0,51.0,-100.00,North,350,3.0,8.0,39,0.00,,,-99.99,,2013-06-12 16:32:00,
2013-06-12 12:01:00,79.0,53.0,-100.00,NW,315,3.0,9.0,40,0.00,,,-99.99,,2013-06-12 17:01:00,
2013-06-12 12:12:00,79.0,53.0,-100.00,NW,315,3.0,9.0,40,0.00,,,-99.99,,2013-06-12 17:12:00,
2013-06-12 12:23:00,79.0,53.0,-100.00,NW,315,3.0,9.0,40,0.00,,,-99.99,,2013-06-12 17:23:00,
2013-06-12 12:33:00,79.0,53.0,-100.00,NW,315,3.0,9.0,40,0.00,,,-99.99,,2013-06-12 17:33:00,
2013-06-12 13:02:00,80.0,53.0,-100.00,North,352,3.0,10.0,39,0.00,,,-99.99,,2013-06-12 18:02:00,
2013-06-12 13:12:00,80.0,53.0,-100.00,North,352,3.0,10.0,39,0.00,,,-99.99,,2013-06-12 18:12:00,
2013-06-12 13:22:00,80.0,53.0,-100.00,North,352,3.0,10.0,39,0.00,,,-99.99,,2013-06-12 18:22:00,
2013-06-12 13:32:00,80.0,53.0,-100.00,North,352,3.0,10.0,39,0.00,,,-99.99,,2013-06-12 18:32:00,
2013-06-12 15:01:00,78.0,50.0,-100.00,NNW,340,4.0,14.0,38,-99.99,,,-99.99,,2013-06-12 20:01:00,
2013-06-12 15:11:00,78.0,50.0,-100.00,NNW,340,4.0,14.0,38,-99.99,,,-99.99,,2013-06-12 20:11:00,
2013-06-12 15:22:00,78.0,50.0,-100.00,NNW,340,4.0,14.0,38,-99.99,,,-99.99,,2013-06-12 20:22:00,
2013-06-12 15:32:00,78.0,50.0,-100.00,NNW,340,4.0,14.0,38,-99.99,,,-99.99,,2013-06-12 20:32:00,
2013-06-12 17:01:00,76.0,47.0,-100.00,NNW,331,5.0,11.0,36,-99.99,,,-99.99,,2013-06-12 22:01:00,
2013-06-12 17:11:00,76.0,47.0,-100.00,NNW,331,5.0,11.0,36,-99.99,,,-99.99,,2013-06-12 22:11:00,
2013-06-12 17:22:00,76.0,47.0,-100.00,NNW,331,5.0,11.0,36,-99.99,,,-99.99,,2013-06-12 22:22:00,
2013-06-12 17:32:00,76.0,47.0,-100.00,NNW,331,5.0,11.0,36,-99.99,,,-99.99,,2013-06-12 22:32:00,
2013-06-12 18:02:00,73.0,47.0,-100.00,NNW,330,5.0,13.0,40,0.00,,,0.00,,2013-06-12 23:02:00,
2013-06-12 18:12:00,73.0,47.0,-100.00,NNW,330,5.0,13.0,40,0.00,,,0.00,,2013-06-12 23:12:00,
2013-06-12 18:22:00,73.0,47.0,-100.00,NNW,330,5.0,13.0,40,0.00,,,0.00,,2013-06-12 23:22:00,
2013-06-12 18:32:00,73.0,47.0,-100.00,NNW,330,5.0,13.0,40,0.00,,,0.00,,2013-06-12 23:32:00,
2013-06-12 19:01:00,70.0,45.0,-100.00,North,353,6.0,14.0,41,0.00,,,0.00,,2013-06-13 00:01:00,
2013-06-12 19:12:00,70.0,45.0,-100.00,North,353,6.0,14.0,41,0.00,,,0.00,,2013-06-13 00:12:00,
2013-06-12 19:22:00,70.0,45.0,-100.00,North,353,6.0,14.0,41,0.00,,,0.00,,2013-06-13 00:22:00,
2013-06-12 19:32:00,70.0,45.0,-100.00,North,353,6.0,14.0,41,0.00,,,0.00,,2013-06-13 00:32:00,
2013-06-12 20:01:00,67.0,46.0,-100.00,NNW,346,5.0,14.0,47,0.00,,,0.00,,2013-06-13 01:01:00,
2013-06-12 20:12:00,67.0,46.0,-100.00,NNW,346,5.0,14.0,47,0.00,,,0.00,,2013-06-13 01:12:00,
2013-06-12 20:22:00,67.0,46.0,-100.00,NNW,346,5.0,14.0,47,0.00,,,0.00,,2013-06-13 01:22:00,
2013-06-12 20:32:00,67.0,46.0,-100.00,NNW,346,5.0,14.0,47,0.00,,,0.00,,2013-06-13 01:32:00,
2013-06-12 21:02:00,64.0,46.0,-100.00,WNW,297,1.0,10.0,52,0.00,,,0.00,,2013-06-13 02:02:00,
2013-06-12 21:12:00,64.0,46.0,-100.00,WNW,297,1.0,10.0,52,0.00,,,0.00,,2013-06-13 02:12:00,
2013-06-12 21:22:00,64.0,46.0,-100.00,WNW,297,1.0,10.0,52,0.00,,,0.00,,2013-06-13 02:22:00,
2013-06-12 21:33:00,64.0,46.0,-100.00,WNW,297,1.0,10.0,52,0.00,,,0.00,,2013-06-13 02:33:00,
2013-06-12 22:02:00,60.0,48.0,-100.00,NW,323,1.0,4.0,65,0.00,,,0.00,,2013-06-13 03:02:00,
2013-06-12 22:12:00,60.0,48.0,-100.00,NW,323,1.0,4.0,65,0.00,,,0.00,,2013-06-13 03:12:00,
2013-06-12 22:22:00,60.0,48.0,-100.00,NW,323,1.0,4.0,65,0.00,,,0.00,,2013-06-13 03:22:00,
2013-06-12 22:33:00,60.0,48.0,-100.00,NW,323,1.0,4.0,65,0.00,,,0.00,,2013-06-13 03:33:00,